TimeEDT,TemperatureF,Dew PointF,Humidity,Sea Level PressureIn,VisibilityMPH,Wind Direction,Wind SpeedMPH,Gust SpeedMPH,PrecipitationIn,Events,Conditions,WindDirDegrees,DateUTC
12:53 AM,62.1,60.1,93,30.03,5.0,Calm,Calm,-,0.01,,Overcast,0,2013-09-30 04:53:00
1:26 AM,62.6,60.8,94,30.03,5.0,Calm,Calm,-,N/A,,Overcast,0,2013-09-30 05:26:00
1:38 AM,62.6,60.8,94,30.03,6.0,Calm,Calm,-,N/A,,Overcast,0,2013-09-30 05:38:00
1:53 AM,62.1,60.1,93,30.02,7.0,Calm,Calm,-,N/A,,Overcast,0,2013-09-30 05:53:00
2:12 AM,62.6,60.8,94,30.03,4.0,Calm,Calm,-,0.00,Rain,Light Rain,0,2013-09-30 06:12:00
2:43 AM,62.6,60.8,94,30.03,2.5,Calm,Calm,-,0.00,Rain,Light Rain,0,2013-09-30 06:43:00
2:53 AM,62.1,61.0,96,30.02,2.5,Calm,Calm,-,0.00,Rain,Light Rain,0,2013-09-30 06:53:00
3:28 AM,62.6,60.8,94,30.02,2.0,Calm,Calm,-,0.02,Rain,Light Rain,0,2013-09-30 07:28:00
3:43 AM,62.6,60.8,94,30.02,1.8,Calm,Calm,-,0.03,Rain,Light Rain,0,2013-09-30 07:43:00
3:48 AM,62.6,60.8,94,30.02,2.0,Calm,Calm,-,0.03,Rain,Light Rain,0,2013-09-30 07:48:00
3:53 AM,62.1,61.0,96,30.01,2.0,Calm,Calm,-,0.03,Rain,Light Rain,0,2013-09-30 07:53:00
4:00 AM,62.6,60.8,94,30.01,2.0,Calm,Calm,-,0.00,Rain,Light Rain,0,2013-09-30 08:00:00
4:16 AM,62.6,60.8,94,30.01,2.0,Calm,Calm,-,0.01,Rain,Light Rain,0,2013-09-30 08:16:00
4:39 AM,62.6,60.8,94,30.02,3.0,Calm,Calm,-,0.01,,Overcast,0,2013-09-30 08:39:00
4:53 AM,62.1,61.0,96,30.01,3.0,Calm,Calm,-,0.01,,Overcast,0,2013-09-30 08:53:00
5:20 AM,62.6,60.8,94,30.02,2.0,Calm,Calm,-,N/A,,Overcast,0,2013-09-30 09:20:00
5:42 AM,62.6,60.8,94,30.02,3.0,Calm,Calm,-,N/A,,Overcast,0,2013-09-30 09:42:00
5:53 AM,62.1,61.0,96,30.02,3.0,Calm,Calm,-,N/A,,Overcast,0,2013-09-30 09:53:00
6:05 AM,62.6,60.8,94,30.02,2.0,Calm,Calm,-,0.00,Rain,Light Rain,0,2013-09-30 10:05:00
6:53 AM,62.1,61.0,96,30.03,3.0,Calm,Calm,-,0.00,,Overcast,0,2013-09-30 10:53:00
7:53 AM,62.1,61.0,96,30.04,3.0,Calm,Calm,-,N/A,,Overcast,0,2013-09-30 11:53:00
8:10 AM,62.6,60.8,94,30.04,3.0,South,3.5,-,N/A,,Overcast,190,2013-09-30 12:10:00
8:53 AM,63.0,61.0,93,30.05,6.0,Calm,Calm,-,N/A,,Overcast,0,2013-09-30 12:53:00
9:10 AM,64.4,60.8,88,30.05,5.0,Calm,Calm,-,0.00,Rain,Light Rain,0,2013-09-30 13:10:00
9:53 AM,64.9,62.1,90,30.05,8.0,Calm,Calm,-,0.00,,Overcast,0,2013-09-30 13:53:00
10:49 AM,66.2,62.6,88,30.05,10.0,SW,4.6,-,N/A,,Overcast,220,2013-09-30 14:49:00
10:53 AM,66.9,62.1,84,30.05,10.0,SW,4.6,-,N/A,,Overcast,230,2013-09-30 14:53:00
11:53 AM,66.0,62.1,87,30.05,10.0,Calm,Calm,-,0.00,,Overcast,0,2013-09-30 15:53:00
12:26 PM,66.2,62.6,88,30.05,10.0,Variable,4.6,-,N/A,,Overcast,0,2013-09-30 16:26:00
12:53 PM,66.9,62.1,84,30.04,9.0,Variable,4.6,-,N/A,,Overcast,0,2013-09-30 16:53:00
1:53 PM,68.0,62.1,81,30.02,9.0,Calm,Calm,-,N/A,,Overcast,0,2013-09-30 17:53:00
2:06 PM,69.8,62.6,78,30.03,10.0,WSW,6.9,-,N/A,,Overcast,250,2013-09-30 18:06:00
2:53 PM,70.0,62.1,76,30.01,10.0,Variable,3.5,-,N/A,,Overcast,0,2013-09-30 18:53:00
3:53 PM,72.0,62.1,71,29.99,10.0,West,3.5,-,N/A,,Mostly Cloudy,280,2013-09-30 19:53:00
4:53 PM,75.0,62.1,64,29.97,10.0,WSW,5.8,-,N/A,,Scattered Clouds,250,2013-09-30 20:53:00
5:53 PM,73.0,62.1,68,29.97,10.0,Variable,3.5,-,N/A,,Scattered Clouds,0,2013-09-30 21:53:00
6:53 PM,71.1,63.0,75,29.98,10.0,Calm,Calm,-,N/A,,Mostly Cloudy,0,2013-09-30 22:53:00
7:53 PM,66.9,63.0,87,30.00,10.0,Calm,Calm,-,N/A,,Overcast,0,2013-09-30 23:53:00
8:53 PM,64.0,62.1,93,30.00,10.0,Calm,Calm,-,N/A,,Overcast,0,2013-10-01 00:53:00
9:53 PM,62.1,60.1,93,30.01,10.0,Calm,Calm,-,N/A,,Clear,0,2013-10-01 01:53:00
10:53 PM,60.1,57.9,93,30.02,7.0,Calm,Calm,-,N/A,,Mostly Cloudy,0,2013-10-01 02:53:00
11:53 PM,57.9,57.0,97,30.03,4.0,Calm,Calm,-,N/A,,Scattered Clouds,0,2013-10-01 03:53:00